createdAt,value
2018-10-21T00:00:02.743Z,101095.28
2018-10-21T00:00:40.569Z,101100.94
2018-10-21T00:01:19.230Z,101097.45
2018-10-21T00:01:57.231Z,101099.06
2018-10-21T00:02:35.353Z,101097.73
2018-10-21T00:03:13.570Z,101103.11
2018-10-21T00:03:53.809Z,101100.19
2018-10-21T00:04:33.468Z,101105.03
2018-10-21T00:05:13.284Z,101105.04
2018-10-21T00:05:51.250Z,101105.05
2018-10-21T00:06:29.450Z,101104.52
2018-10-21T00:07:07.367Z,101102.38
2018-10-21T00:07:46.005Z,101099.15
2018-10-21T00:08:23.817Z,101101.58
2018-10-21T00:09:01.863Z,101106.45
2018-10-21T00:09:39.743Z,101112.38
2018-10-21T00:10:17.670Z,101110.00
2018-10-21T00:10:55.741Z,101114.58
2018-10-21T00:11:33.566Z,101111.89
2018-10-21T00:12:11.543Z,101114.05
2018-10-21T00:12:49.463Z,101111.13
2018-10-21T00:13:27.661Z,101118.66
2018-10-21T00:14:05.444Z,101115.44
2018-10-21T00:14:43.319Z,101115.70
2018-10-21T00:15:21.388Z,101119.48
2018-10-21T00:15:59.834Z,101113.56
2018-10-21T00:16:37.737Z,101114.66
2018-10-21T00:17:15.691Z,101115.74
2018-10-21T00:17:53.902Z,101113.59
2018-10-21T00:18:32.742Z,101111.16
2018-10-21T00:19:11.194Z,101116.27
2018-10-21T00:19:49.084Z,101111.70
2018-10-21T00:20:26.989Z,101112.83
2018-10-21T00:21:05.155Z,101108.52
2018-10-21T00:21:43.079Z,101119.02
2018-10-21T00:22:20.988Z,101113.09
2018-10-21T00:22:59.026Z,101118.20
2018-10-21T00:23:37.088Z,101118.47
2018-10-21T00:24:14.905Z,101116.06
2018-10-21T00:24:52.775Z,101120.36
2018-10-21T00:25:31.274Z,101123.05
2018-10-21T00:26:10.144Z,101120.08
2018-10-21T00:26:47.905Z,101121.14
2018-10-21T00:27:25.897Z,101119.28
2018-10-21T00:28:03.854Z,101117.92
2018-10-21T00:28:41.782Z,101118.19
2018-10-21T00:29:19.686Z,101118.70
2018-10-21T00:29:58.425Z,101119.23
2018-10-21T00:30:36.288Z,101119.52
2018-10-21T00:31:14.242Z,101117.92
2018-10-21T00:31:52.163Z,101117.63
2018-10-21T00:32:33.635Z,101116.54
2018-10-21T00:33:11.625Z,101117.06
2018-10-21T00:33:49.820Z,101116.77
2018-10-21T00:34:27.811Z,101115.68
2018-10-21T00:35:05.653Z,101119.47
2018-10-21T00:35:43.630Z,101116.48
2018-10-21T00:36:21.572Z,101120.23
2018-10-21T00:36:59.481Z,101116.72
2018-10-21T00:37:37.328Z,101123.19
2018-10-21T00:38:15.140Z,101118.32
2018-10-21T00:38:53.050Z,101109.45
2018-10-21T00:39:31.044Z,101115.34
2018-10-21T00:40:09.030Z,101117.48
2018-10-21T00:40:47.801Z,101112.09
2018-10-21T00:41:25.935Z,101116.70
2018-10-21T00:42:03.822Z,101118.31
2018-10-21T00:42:42.072Z,101112.09
2018-10-21T00:43:19.968Z,101117.75
2018-10-21T00:43:57.908Z,101117.75
2018-10-21T00:44:35.857Z,101125.30
2018-10-21T00:45:13.815Z,101123.67
2018-10-21T00:45:51.795Z,101123.94
2018-10-21T00:46:29.659Z,101125.55
2018-10-21T00:47:07.625Z,101126.92
2018-10-21T00:47:45.477Z,101130.41
2018-10-21T00:48:23.354Z,101128.78
2018-10-21T00:49:01.281Z,101130.92
2018-10-21T00:49:39.187Z,101131.98
2018-10-21T00:50:17.123Z,101133.06
2018-10-21T00:50:55.679Z,101129.83
2018-10-21T00:51:33.679Z,101129.01
2018-10-21T00:52:11.592Z,101128.45
2018-10-21T00:52:49.472Z,101126.54
2018-10-21T00:53:27.313Z,101130.29
2018-10-21T00:54:05.752Z,101131.91
2018-10-21T00:54:43.576Z,101132.69
2018-10-21T00:55:21.501Z,101131.86
2018-10-21T00:55:59.374Z,101130.52
2018-10-21T00:56:37.397Z,101133.48
2018-10-21T00:57:15.474Z,101135.91
2018-10-21T00:57:53.536Z,101133.23
2018-10-21T00:58:31.518Z,101139.66
2018-10-21T00:59:10.801Z,101134.52
2018-10-21T00:59:49.180Z,101142.05
2018-10-21T01:00:27.143Z,101138.80
2018-10-21T01:01:05.115Z,101139.32
2018-10-21T01:01:43.309Z,101145.24
2018-10-21T01:02:21.192Z,101141.72
2018-10-21T01:02:59.154Z,101140.62
2018-10-21T01:03:37.135Z,101141.73
2018-10-21T01:04:16.601Z,101138.74
2018-10-21T01:04:54.708Z,101143.89
2018-10-21T01:05:32.501Z,101143.34
2018-10-21T01:06:10.389Z,101151.17
2018-10-21T01:06:49.592Z,101146.83
2018-10-21T01:07:27.675Z,101150.86
2018-10-21T01:08:05.632Z,101143.30
2018-10-21T01:08:43.725Z,101144.92
2018-10-21T01:09:21.638Z,101145.73
2018-10-21T01:09:59.706Z,101151.34
2018-10-21T01:10:37.752Z,101150.25
2018-10-21T01:11:15.641Z,101156.18
2018-10-21T01:11:54.592Z,101151.58
2018-10-21T01:12:32.615Z,101154.81
2018-10-21T01:13:10.548Z,101151.83
2018-10-21T01:13:48.453Z,101153.44
2018-10-21T01:14:26.385Z,101159.89
2018-10-21T01:15:04.314Z,101146.91
2018-10-21T01:15:42.306Z,101149.34
2018-10-21T01:16:20.261Z,101154.17
2018-10-21T01:16:58.113Z,101163.28
2018-10-21T01:17:36.141Z,101164.61
2018-10-21T01:18:14.745Z,101165.91
2018-10-21T01:18:52.585Z,101167.50
2018-10-21T01:19:30.673Z,101155.05
2018-10-21T01:20:09.907Z,101170.39
2018-10-21T01:20:47.769Z,101174.13
2018-10-21T01:21:25.672Z,101178.39
2018-10-21T01:22:03.525Z,101168.92
2018-10-21T01:22:41.640Z,101172.09
2018-10-21T01:23:20.842Z,101173.42
2018-10-21T01:23:58.795Z,101178.22
2018-10-21T01:24:36.630Z,101175.45
2018-10-21T01:25:15.041Z,101168.41
2018-10-21T01:25:52.964Z,101171.85
2018-10-21T01:26:31.204Z,101169.41
2018-10-21T01:27:09.759Z,101169.08
2018-10-21T01:27:47.671Z,101172.02
2018-10-21T01:28:25.455Z,101173.30
2018-10-21T01:29:03.661Z,101172.97
2018-10-21T01:29:45.462Z,101171.58
2018-10-21T01:30:23.377Z,101173.13
2018-10-21T01:31:01.380Z,101172.25
2018-10-21T01:31:39.256Z,101172.47
2018-10-21T01:32:18.676Z,101174.88
2018-10-21T01:32:56.645Z,101175.06
2018-10-21T01:33:34.669Z,101178.54
2018-10-21T01:34:12.517Z,101173.30
2018-10-21T01:34:50.571Z,101175.71
2018-10-21T01:35:28.504Z,101178.67
2018-10-21T01:36:06.448Z,101177.53
2018-10-21T01:36:45.521Z,101178.55
2018-10-21T01:37:23.480Z,101176.09
2018-10-21T01:38:01.422Z,101176.86
2018-10-21T01:38:39.526Z,101178.94
2018-10-21T01:39:18.679Z,101177.80
2018-10-21T01:40:59.874Z,101176.95
2018-10-21T01:41:37.793Z,101176.23
2018-10-21T01:42:15.667Z,101182.91
2018-10-21T01:42:53.533Z,101177.70
2018-10-21T01:43:33.486Z,101179.34
2018-10-21T01:44:11.461Z,101181.20
2018-10-21T01:44:49.318Z,101176.08
2018-10-21T01:45:27.787Z,101181.20
2018-10-21T01:46:06.086Z,101182.21
2018-10-21T01:46:43.904Z,101179.96
2018-10-21T01:47:21.999Z,101182.84
2018-10-21T01:48:01.285Z,101188.20
2018-10-21T01:48:39.170Z,101184.84
2018-10-21T01:49:18.119Z,101192.63
2018-10-21T01:49:56.220Z,101184.95
2018-10-21T01:50:34.134Z,101188.92
2018-10-21T01:51:12.088Z,101183.98
2018-10-21T01:51:50.188Z,101189.87
2018-10-21T01:52:28.109Z,101183.58
2018-10-21T01:53:07.236Z,101187.29
2018-10-21T01:53:45.112Z,101186.39
2018-10-21T01:54:27.257Z,101186.92
2018-10-21T01:55:05.081Z,101192.75
2018-10-21T01:55:43.004Z,101187.02
2018-10-21T01:56:21.988Z,101194.55
2018-10-21T01:56:59.870Z,101191.23
2018-10-21T01:57:37.842Z,101184.95
2018-10-21T01:58:15.787Z,101182.79
2018-10-21T01:58:53.724Z,101190.13
2018-10-21T01:59:31.612Z,101184.70
2018-10-21T02:00:10.316Z,101185.25
2018-10-21T02:00:48.329Z,101187.72
2018-10-21T02:01:26.287Z,101184.00
2018-10-21T02:02:04.189Z,101183.25
2018-10-21T02:02:42.125Z,101184.91
2018-10-21T02:03:20.064Z,101184.71
2018-10-21T02:03:57.909Z,101186.62
2018-10-21T02:04:35.740Z,101185.02
2018-10-21T02:05:13.858Z,101184.20
2018-10-21T02:05:51.838Z,101182.59
2018-10-21T02:06:29.708Z,101184.45
2018-10-21T02:07:08.612Z,101179.59
2018-10-21T02:07:46.731Z,101185.77
2018-10-21T02:08:24.820Z,101185.41
2018-10-21T02:09:02.877Z,101188.32
2018-10-21T02:09:40.886Z,101190.98
2018-10-21T02:10:18.900Z,101193.09
2018-10-21T02:10:56.807Z,101195.50
2018-10-21T02:11:35.905Z,101191.38
2018-10-21T02:12:14.128Z,101195.12
2018-10-21T02:12:51.978Z,101196.63
2018-10-21T02:13:29.868Z,101199.04
2018-10-21T02:14:07.906Z,101188.38
2018-10-21T02:14:45.859Z,101194.80
2018-10-21T02:15:23.819Z,101194.51
2018-10-21T02:16:01.846Z,101194.45
2018-10-21T02:16:39.728Z,101192.79
2018-10-21T02:17:18.536Z,101194.89
2018-10-21T02:17:56.453Z,101193.17
2018-10-21T02:18:34.273Z,101188.86
2018-10-21T02:19:12.085Z,101191.81
2018-10-21T02:19:50.041Z,101192.56
2018-10-21T02:20:28.457Z,101192.45
2018-10-21T02:21:06.394Z,101191.03
2018-10-21T02:21:44.458Z,101192.06
2018-10-21T02:22:22.461Z,101192.00
2018-10-21T02:23:00.345Z,101187.31
2018-10-21T02:23:38.417Z,101192.94
2018-10-21T02:24:16.293Z,101196.40
2018-10-21T02:24:54.286Z,101192.27
2018-10-21T02:25:32.255Z,101193.01
2018-10-21T02:26:10.278Z,101191.90
2018-10-21T02:26:48.256Z,101198.10
2018-10-21T02:27:26.265Z,101188.81
2018-10-21T02:28:04.275Z,101191.22
2018-10-21T02:28:42.113Z,101196.84
2018-10-21T02:29:20.033Z,101193.57
2018-10-21T02:29:57.921Z,101195.42
2018-10-21T02:30:35.890Z,101198.88
2018-10-21T02:31:13.722Z,101202.59
2018-10-21T02:31:51.643Z,101199.03
2018-10-21T02:32:29.574Z,101204.72
2018-10-21T02:33:07.576Z,101203.85
2018-10-21T02:33:45.693Z,101205.70
2018-10-21T02:34:23.718Z,101206.20
2018-10-21T02:35:01.516Z,101204.22
2018-10-21T02:35:40.493Z,101204.16
2018-10-21T02:36:18.290Z,101206.56
2018-10-21T02:36:56.194Z,101211.45
2018-10-21T02:37:34.049Z,101203.23
2018-10-21T02:38:12.103Z,101206.13
2018-10-21T02:38:49.962Z,101202.85
2018-10-21T02:39:27.837Z,101201.15
2018-10-21T02:40:05.824Z,101204.85
2018-10-21T02:41:50.161Z,101203.98
2018-10-21T02:42:28.112Z,101209.65
2018-10-21T02:43:06.029Z,101207.00
2018-10-21T02:43:44.294Z,101204.89
2018-10-21T02:44:23.381Z,101205.84
2018-10-21T02:45:01.305Z,101206.21
2018-10-21T02:45:39.243Z,101205.31
2018-10-21T02:46:17.362Z,101208.83
2018-10-21T02:46:56.650Z,101213.64
2018-10-21T02:47:34.532Z,101208.94
2018-10-21T02:48:12.443Z,101210.20
2018-10-21T02:48:50.413Z,101214.77
2018-10-21T02:49:28.440Z,101216.80
2018-10-21T02:50:06.616Z,101215.75
2018-10-21T02:50:46.138Z,101213.52
2018-10-21T02:51:24.196Z,101218.23
2018-10-21T02:52:06.025Z,101216.24
2018-10-21T02:52:43.981Z,101219.27
2018-10-21T02:53:22.004Z,101212.41
2018-10-21T02:53:59.956Z,101220.56
2018-10-21T02:54:38.848Z,101210.66
2018-10-21T02:55:16.736Z,101216.98
2018-10-21T02:55:54.796Z,101209.20
2018-10-21T02:56:32.696Z,101212.48
2018-10-21T02:57:12.525Z,101216.24
2018-10-21T02:57:50.385Z,101216.11
2018-10-21T02:58:28.391Z,101217.95
2018-10-21T02:59:06.814Z,101215.97
2018-10-21T02:59:44.865Z,101218.06
2018-10-21T03:00:22.774Z,101220.44
2018-10-21T03:01:01.552Z,101221.17
2018-10-21T03:01:39.666Z,101216.21
2018-10-21T03:02:17.614Z,101215.58
2018-10-21T03:02:55.555Z,101218.80
2018-10-21T03:03:33.393Z,101216.07
2018-10-21T03:04:11.290Z,101216.28
2018-10-21T03:04:49.440Z,101210.83
2018-10-21T03:05:27.374Z,101213.73
2018-10-21T03:06:06.324Z,101212.13
2018-10-21T03:06:44.277Z,101214.36
2018-10-21T03:07:22.193Z,101206.44
2018-10-21T03:08:00.065Z,101214.59
2018-10-21T03:08:38.351Z,101206.92
2018-10-21T03:09:16.384Z,101205.81
2018-10-21T03:09:54.353Z,101207.69
2018-10-21T03:10:32.530Z,101210.41
2018-10-21T03:11:10.745Z,101208.53
2018-10-21T03:11:48.690Z,101209.05
2018-10-21T03:12:26.703Z,101208.41
2018-10-21T03:13:04.509Z,101204.33
2018-10-21T03:13:42.395Z,101203.84
2018-10-21T03:14:20.237Z,101202.48
2018-10-21T03:14:58.095Z,101206.33
2018-10-21T03:15:35.866Z,101204.72
2018-10-21T03:16:14.528Z,101202.71
2018-10-21T03:16:52.400Z,101204.53
2018-10-21T03:17:30.226Z,101208.78
2018-10-21T03:18:08.203Z,101210.14
2018-10-21T03:18:46.187Z,101205.16
2018-10-21T03:19:24.151Z,101206.70
2018-10-21T03:20:02.068Z,101207.32
2018-10-21T03:20:40.017Z,101199.55
2018-10-21T03:21:17.998Z,101203.86
2018-10-21T03:21:55.972Z,101202.37
2018-10-21T03:22:33.935Z,101202.61
2018-10-21T03:23:12.745Z,101198.78
2018-10-21T03:23:51.132Z,101200.20
2018-10-21T03:24:29.128Z,101193.09
2018-10-21T03:25:07.176Z,101197.66
2018-10-21T03:25:45.212Z,101191.73
2018-10-21T03:26:23.302Z,101192.53
2018-10-21T03:27:01.202Z,101196.30
2018-10-21T03:27:39.025Z,101188.45
2018-10-21T03:28:17.301Z,101188.66
2018-10-21T03:28:55.443Z,101191.38
2018-10-21T03:29:33.337Z,101189.25
2018-10-21T03:30:11.302Z,101184.89
2018-10-21T03:30:49.216Z,101184.33
2018-10-21T03:31:27.105Z,101181.61
2018-10-21T03:32:05.117Z,101182.90
2018-10-21T03:32:43.031Z,101184.82
2018-10-21T03:33:21.206Z,101181.78
2018-10-21T03:33:59.059Z,101176.66
2018-10-21T03:34:37.243Z,101179.98
2018-10-21T03:35:15.202Z,101178.69
2018-10-21T03:35:53.280Z,101175.90
2018-10-21T03:36:31.314Z,101170.45
2018-10-21T03:37:09.256Z,101169.61
2018-10-21T03:37:47.204Z,101172.58
2018-10-21T03:38:25.214Z,101169.37
2018-10-21T03:39:03.036Z,101167.45
2018-10-21T03:39:41.046Z,101167.49
2018-10-21T03:40:19.049Z,101172.44
2018-10-21T03:40:57.116Z,101169.48
2018-10-21T03:41:35.106Z,101172.69
2018-10-21T03:45:14.270Z,101168.59
2018-10-21T03:45:52.314Z,101165.25
2018-10-21T03:46:30.274Z,101164.38
2018-10-21T03:47:08.175Z,101164.81
2018-10-21T03:47:46.049Z,101169.34
2018-10-21T03:48:24.113Z,101166.23
2018-10-21T03:49:02.207Z,101163.27
2018-10-21T03:49:40.072Z,101168.15
2018-10-21T03:50:17.879Z,101164.31
2018-10-21T03:50:55.741Z,101164.06
2018-10-21T03:51:33.601Z,101164.80
2018-10-21T03:52:11.474Z,101159.42
2018-10-21T03:52:49.512Z,101158.94
2018-10-21T03:53:27.363Z,101163.51
2018-10-21T03:54:05.267Z,101159.67
2018-10-21T03:54:46.882Z,101159.91
2018-10-21T03:55:24.750Z,101160.64
2018-10-21T03:56:02.723Z,101149.99
2018-10-21T03:56:40.647Z,101151.84
2018-10-21T03:57:18.688Z,101153.13
2018-10-21T03:57:57.633Z,101144.16
2018-10-21T03:58:35.671Z,101150.81
2018-10-21T03:59:13.566Z,101148.64
2018-10-21T03:59:51.531Z,101151.85
2018-10-21T04:00:30.233Z,101144.68
2018-10-21T04:01:08.354Z,101145.64
2018-10-21T04:01:46.269Z,101143.56
2018-10-21T04:02:24.271Z,101145.81
2018-10-21T04:03:02.326Z,101147.41
2018-10-21T04:03:40.143Z,101147.41
2018-10-21T04:04:18.014Z,101144.45
2018-10-21T04:04:56.186Z,101151.50
2018-10-21T04:05:34.185Z,101149.02
2018-10-21T04:06:12.295Z,101149.89
2018-10-21T04:06:50.210Z,101139.80
2018-10-21T04:07:28.132Z,101140.12
2018-10-21T04:08:06.076Z,101138.28
2018-10-21T04:08:44.004Z,101139.64
2018-10-21T04:09:21.944Z,101138.28
2018-10-21T04:09:59.893Z,101137.40
2018-10-21T04:10:38.025Z,101138.13
2018-10-21T04:11:16.003Z,101137.33
2018-10-21T04:11:53.958Z,101130.27
2018-10-21T04:12:31.883Z,101127.63
2018-10-21T04:13:09.868Z,101130.67
2018-10-21T04:13:47.692Z,101131.71
2018-10-21T04:14:25.594Z,101122.98
2018-10-21T04:15:03.507Z,101131.08
2018-10-21T04:15:41.321Z,101125.55
2018-10-21T04:16:19.305Z,101122.19
2018-10-21T04:16:58.425Z,101120.50
2018-10-21T04:17:36.249Z,101118.02
2018-10-21T04:18:14.577Z,101122.11
2018-10-21T04:18:52.469Z,101116.05
2018-10-21T04:19:30.414Z,101121.21
2018-10-21T04:20:09.051Z,101114.96
2018-10-21T04:20:46.886Z,101112.23
2018-10-21T04:21:24.685Z,101114.23
2018-10-21T04:22:02.872Z,101109.83
2018-10-21T04:22:46.223Z,101113.59
2018-10-21T04:23:24.023Z,101105.91
2018-10-21T04:24:01.971Z,101101.73
2018-10-21T04:24:39.774Z,101102.45
2018-10-21T04:25:17.637Z,101098.61
2018-10-21T04:25:55.569Z,101099.64
2018-10-21T04:26:34.116Z,101095.23
2018-10-21T04:27:11.981Z,101097.11
2018-10-21T04:27:51.501Z,101091.66
2018-10-21T04:28:29.430Z,101094.11
2018-10-21T04:29:07.256Z,101088.59
2018-10-21T04:29:45.251Z,101089.88
2018-10-21T04:30:27.367Z,101084.51
2018-10-21T04:31:05.126Z,101089.48
2018-10-21T04:31:42.955Z,101081.87
2018-10-21T04:32:20.919Z,101079.06
2018-10-21T04:34:01.173Z,101077.22
2018-10-21T04:34:39.023Z,101068.97
2018-10-21T04:35:17.013Z,101064.01
2018-10-21T04:35:54.893Z,101063.36
2018-10-21T04:36:35.181Z,101059.75
2018-10-21T04:38:24.445Z,101064.16
2018-10-21T04:40:26.567Z,101066.58
2018-10-21T04:41:04.457Z,101060.16
2018-10-21T04:41:42.559Z,101054.06
2018-10-21T04:42:20.548Z,101051.91
2018-10-21T04:42:58.625Z,101048.21
2018-10-21T04:43:36.583Z,101051.97
2018-10-21T04:44:14.545Z,101042.84
2018-10-21T04:44:52.781Z,101045.42
2018-10-21T04:45:30.738Z,101036.85
2018-10-21T04:46:08.747Z,101036.56
2018-10-21T04:46:46.837Z,101040.25
2018-10-21T04:47:24.826Z,101035.47
2018-10-21T04:48:02.658Z,101037.78
2018-10-21T04:48:40.596Z,101031.77
2018-10-21T04:49:18.606Z,101032.75
2018-10-21T04:49:57.553Z,101032.61
2018-10-21T04:50:35.441Z,101024.81
2018-10-21T04:51:13.519Z,101025.95
2018-10-21T04:51:51.527Z,101020.58
2018-10-21T04:52:30.284Z,101027.13
2018-10-21T04:53:09.140Z,101027.70
2018-10-21T04:53:47.116Z,101022.55
2018-10-21T04:54:25.129Z,101021.02
2018-10-21T04:55:08.322Z,101019.80
2018-10-21T04:55:46.378Z,101019.11
2018-10-21T04:56:24.246Z,101020.13
2018-10-21T04:57:02.060Z,101020.63
2018-10-21T04:57:42.252Z,101013.37
2018-10-21T04:58:20.296Z,101013.05
2018-10-21T04:58:58.379Z,101016.65
2018-10-21T04:59:36.440Z,101017.19
2018-10-21T05:00:17.211Z,101012.55
2018-10-21T05:00:55.204Z,101014.08
2018-10-21T05:01:33.207Z,101012.80
2018-10-21T05:02:11.110Z,101018.64
2018-10-21T05:02:49.167Z,101013.98
2018-10-21T05:03:27.050Z,101017.98
2018-10-21T05:04:04.950Z,101019.09
2018-10-21T05:04:42.883Z,101019.84
2018-10-21T05:05:20.784Z,101017.67
2018-10-21T05:05:58.683Z,101017.63
2018-10-21T05:06:36.665Z,101014.89
2018-10-21T05:07:14.564Z,101012.64
2018-10-21T05:07:52.451Z,101019.03
2018-10-21T05:08:30.341Z,101017.63
2018-10-21T05:09:09.439Z,101010.53
2018-10-21T05:09:47.361Z,101015.28
2018-10-21T05:10:35.025Z,101015.66
2018-10-21T05:11:13.702Z,101006.44
2018-10-21T05:11:51.565Z,101007.69
2018-10-21T05:12:29.463Z,101008.05
2018-10-21T05:13:08.253Z,101007.63
2018-10-21T05:13:46.252Z,101002.02
2018-10-21T05:14:24.167Z,100997.89
2018-10-21T05:15:02.075Z,100998.80
2018-10-21T05:15:41.093Z,100995.42
2018-10-21T05:16:19.222Z,100998.63
2018-10-21T05:16:57.193Z,100992.48
2018-10-21T05:17:34.997Z,100995.50
2018-10-21T05:18:12.914Z,100993.00
2018-10-21T05:18:50.832Z,100997.69
2018-10-21T05:19:28.826Z,100993.36
2018-10-21T05:20:06.679Z,100996.45
2018-10-21T05:20:44.517Z,100998.83
2018-10-21T05:21:22.588Z,100996.86
2018-10-21T05:22:00.508Z,100992.93
2018-10-21T05:22:38.369Z,100994.41
2018-10-21T05:23:16.225Z,100995.91
2018-10-21T05:23:55.196Z,100995.42
2018-10-21T05:24:33.819Z,100996.30
2018-10-21T05:25:12.673Z,100994.83
2018-10-21T05:25:50.545Z,100989.27
2018-10-21T05:26:28.435Z,100986.69
2018-10-21T05:27:07.340Z,100983.80
2018-10-21T05:27:46.209Z,100983.23
2018-10-21T05:28:24.168Z,100982.27
2018-10-21T05:29:02.088Z,100980.28
2018-10-21T05:29:39.926Z,100976.63
2018-10-21T05:30:18.052Z,100973.87
2018-10-21T05:30:55.960Z,100978.17
2018-10-21T05:31:33.878Z,100977.44
2018-10-21T05:32:11.664Z,100974.00
2018-10-21T05:32:50.045Z,100977.83
2018-10-21T05:33:27.957Z,100975.36
2018-10-21T05:34:05.993Z,100975.60
2018-10-21T05:34:43.829Z,100973.13
2018-10-21T05:35:22.215Z,100968.56
2018-10-21T05:36:00.156Z,100971.39
2018-10-21T05:36:38.671Z,100972.40
2018-10-21T05:37:16.529Z,100971.57
2018-10-21T05:37:54.651Z,100968.23
2018-10-21T05:38:32.586Z,100964.61
2018-10-21T05:39:13.657Z,100958.48
2018-10-21T05:39:51.586Z,100960.99
2018-10-21T05:40:29.595Z,100962.13
2018-10-21T05:41:07.599Z,100962.65
2018-10-21T05:41:45.437Z,100961.02
2018-10-21T05:42:23.280Z,100960.66
2018-10-21T05:43:01.171Z,100949.69
2018-10-21T05:43:39.016Z,100954.52
2018-10-21T05:44:16.937Z,100950.22
2018-10-21T05:44:54.881Z,100951.86
2018-10-21T05:45:32.792Z,100953.59
2018-10-21T05:46:12.268Z,100944.96
2018-10-21T05:46:52.566Z,100949.89
2018-10-21T05:47:30.664Z,100951.81
2018-10-21T05:48:08.795Z,100946.69
2018-10-21T05:48:46.684Z,100945.83
2018-10-21T05:49:24.657Z,100941.20
2018-10-21T05:50:02.627Z,100939.28
2018-10-21T05:50:41.060Z,100935.52
2018-10-21T05:51:18.892Z,100930.41
2018-10-21T05:51:56.998Z,100932.14
2018-10-21T05:52:34.955Z,100930.05
2018-10-21T05:53:12.844Z,100931.86
2018-10-21T05:53:50.740Z,100932.85
2018-10-21T05:54:28.613Z,100925.89
2018-10-21T05:55:06.569Z,100927.45
2018-10-21T05:55:44.612Z,100921.53
2018-10-21T05:56:22.509Z,100926.41
2018-10-21T05:57:00.438Z,100923.48
2018-10-21T05:57:38.315Z,100919.52
2018-10-21T05:58:16.441Z,100918.72
2018-10-21T05:58:54.384Z,100922.23
2018-10-21T05:59:32.368Z,100917.12
2018-10-21T06:00:15.441Z,100913.91
2018-10-21T06:00:53.365Z,100915.52
2018-10-21T06:01:31.266Z,100916.62
2018-10-21T06:02:09.445Z,100913.14
2018-10-21T06:02:47.308Z,100912.34
2018-10-21T06:03:25.461Z,100907.72
2018-10-21T06:04:03.568Z,100913.75
2018-10-21T06:04:41.572Z,100913.75
2018-10-21T06:05:47.505Z,100909.69
2018-10-21T06:06:25.332Z,100910.55
2018-10-21T06:07:03.189Z,100909.44
2018-10-21T06:07:42.345Z,100909.74
2018-10-21T06:08:20.228Z,100901.05
2018-10-21T06:08:58.261Z,100905.92
2018-10-21T06:09:36.026Z,100903.16
2018-10-21T06:10:14.855Z,100907.22
2018-10-21T06:10:52.712Z,100897.42
2018-10-21T06:11:30.609Z,100898.23
2018-10-21T06:12:08.876Z,100898.78
2018-10-21T06:12:46.868Z,100905.28
2018-10-21T06:13:24.689Z,100896.88
2018-10-21T06:14:03.374Z,100895.52
2018-10-21T06:14:41.415Z,100898.50
2018-10-21T06:15:19.246Z,100894.16
2018-10-21T06:15:57.055Z,100901.47
2018-10-21T06:16:39.176Z,100894.44
2018-10-21T06:17:23.821Z,100895.52
2018-10-21T06:18:02.504Z,100892.80
2018-10-21T06:18:40.368Z,100895.80
2018-10-21T06:19:23.064Z,100889.27
2018-10-21T06:20:09.559Z,100890.31
2018-10-21T06:20:50.895Z,100887.29
2018-10-21T06:21:28.799Z,100891.05
2018-10-21T06:22:07.727Z,100889.39
2018-10-21T06:22:47.510Z,100892.84
2018-10-21T06:23:25.408Z,100892.84
2018-10-21T06:24:03.244Z,100896.08
2018-10-21T06:24:41.175Z,100891.77
2018-10-21T06:25:19.041Z,100893.36
2018-10-21T06:25:57.447Z,100894.97
2018-10-21T06:26:35.274Z,100889.67
2018-10-21T06:27:13.277Z,100886.98
2018-10-21T06:27:51.237Z,100884.02
2018-10-21T06:28:29.219Z,100885.13
2018-10-21T06:29:07.144Z,100880.56
2018-10-21T06:29:45.166Z,100880.27
2018-10-21T06:30:23.223Z,100880.56
2018-10-21T06:31:01.121Z,100872.44
2018-10-21T06:31:39.078Z,100877.55
2018-10-21T06:32:17.034Z,100876.99
2018-10-21T06:32:55.005Z,100873.35
2018-10-21T06:33:33.040Z,100877.60
2018-10-21T06:34:11.230Z,100880.56
2018-10-21T06:34:50.003Z,100874.27
2018-10-21T06:35:27.953Z,100877.47
2018-10-21T06:36:05.845Z,100873.40
2018-10-21T06:36:43.823Z,100878.23
2018-10-21T06:37:22.302Z,100870.59
2018-10-21T06:38:00.202Z,100867.36
2018-10-21T06:38:38.028Z,100873.70
2018-10-21T06:39:16.078Z,100870.19
2018-10-21T06:39:54.403Z,100870.56
2018-10-21T06:40:32.297Z,100871.13
2018-10-21T06:41:10.223Z,100866.50
2018-10-21T06:41:48.065Z,100862.67
2018-10-21T06:42:26.044Z,100865.00
2018-10-21T06:43:04.123Z,100866.73
2018-10-21T06:43:41.953Z,100860.44
2018-10-21T06:44:19.852Z,100868.23
2018-10-21T06:44:57.787Z,100869.04
2018-10-21T06:45:35.758Z,100863.57
2018-10-21T06:46:14.594Z,100866.78
2018-10-21T06:46:52.421Z,100864.16
2018-10-21T06:47:30.689Z,100863.68
2018-10-21T06:48:08.856Z,100859.67
2018-10-21T06:48:46.784Z,100857.63
2018-10-21T06:49:24.828Z,100859.26
2018-10-21T06:50:02.786Z,100863.39
2018-10-21T06:50:40.927Z,100862.38
2018-10-21T06:51:18.993Z,100859.03
2018-10-21T06:51:56.890Z,100861.00
2018-10-21T06:52:34.837Z,100853.22
2018-10-21T06:53:12.917Z,100853.55
2018-10-21T06:53:50.917Z,100849.56
2018-10-21T06:54:28.809Z,100848.64
2018-10-21T06:55:06.925Z,100846.01
2018-10-21T06:55:44.765Z,100847.20
2018-10-21T06:56:22.725Z,100838.53
2018-10-21T06:57:00.870Z,100839.23
2018-10-21T06:57:38.953Z,100840.75
2018-10-21T06:58:16.942Z,100840.31
2018-10-21T06:58:54.893Z,100844.14
2018-10-21T06:59:34.384Z,100842.30
2018-10-21T07:00:12.563Z,100840.02
2018-10-21T07:00:50.572Z,100841.22
2018-10-21T07:01:29.594Z,100837.30
2018-10-21T07:02:07.673Z,100832.59
2018-10-21T07:02:45.565Z,100834.05
2018-10-21T07:03:23.431Z,100836.05
2018-10-21T07:04:01.308Z,100827.22
2018-10-21T07:04:39.425Z,100824.59
2018-10-21T07:06:29.281Z,100821.16
2018-10-21T07:07:07.262Z,100818.06
2018-10-21T07:07:45.681Z,100823.02
2018-10-21T07:08:23.602Z,100814.33
2018-10-21T07:09:04.814Z,100807.94
2018-10-21T07:09:42.752Z,100806.73
2018-10-21T07:10:21.127Z,100811.29
2018-10-21T07:10:59.057Z,100808.73
2018-10-21T07:11:36.933Z,100804.42
2018-10-21T07:12:15.038Z,100803.77
2018-10-21T07:12:53.243Z,100799.45
2018-10-21T07:13:31.314Z,100806.09
2018-10-21T07:14:09.306Z,100803.88
2018-10-21T07:14:47.206Z,100795.79
2018-10-21T07:15:25.287Z,100799.22
2018-10-21T07:16:03.260Z,100801.78
2018-10-21T07:16:42.016Z,100797.52
2018-10-21T07:17:20.085Z,100793.95
2018-10-21T07:17:57.929Z,100793.54
2018-10-21T07:18:36.009Z,100791.70
2018-10-21T07:19:13.876Z,100786.81
2018-10-21T07:19:51.837Z,100789.60
2018-10-21T07:20:29.615Z,100788.25
2018-10-21T07:21:07.481Z,100784.25
2018-10-21T07:21:45.385Z,100778.31
2018-10-21T07:22:23.268Z,100782.08
2018-10-21T07:23:01.171Z,100780.89
2018-10-21T07:23:39.184Z,100784.25
2018-10-21T07:24:18.000Z,100782.66
2018-10-21T07:24:55.862Z,100788.19
2018-10-21T07:25:33.706Z,100780.64
2018-10-21T07:26:11.720Z,100782.66